Time;durP1;ratioP1;P1;durP2;ratioP2;P2;SDS_P1;SDS_P2;PMS_P1;PMS_P2;Temp;Humidity;BMP_temperature;BMP_pressure;BME280_temperature;BME280_humidity;BME280_pressure;Samples;Min_cycle;Max_cycle;Signal;HPM_P1;HPM_P2
2021/04/13 00:00:20;;;;;;;8.93;4.63;;;1.70;99.90;;;;;;12352694;28;20043;-42
2021/04/13 00:06:34;;;;;;;10.13;6.00;;;1.90;99.90;;;;;;12345513;28;20041;-41
2021/04/13 00:12:36;;;;;;;10.10;5.60;;;1.80;99.90;;;;;;12347605;28;20598;-42
2021/04/13 00:18:41;;;;;;;8.80;5.30;;;1.50;99.90;;;;;;12360721;28;20050;-40
2021/04/13 00:24:43;;;;;;;9.60;5.22;;;1.40;99.90;;;;;;12362148;28;20109;-43
2021/04/13 00:30:47;;;;;;;10.52;6.03;;;1.40;99.90;;;;;;12354436;28;20051;-43
2021/04/13 00:36:53;;;;;;;12.70;5.38;;;1.30;99.90;;;;;;12361936;28;20058;-43
2021/04/13 00:43:01;;;;;;;13.32;5.50;;;1.30;99.90;;;;;;12357250;28;20056;-43
2021/04/13 00:49:03;;;;;;;13.43;6.57;;;1.30;99.90;;;;;;12358790;28;20462;-43
2021/04/13 00:55:09;;;;;;;13.93;6.35;;;1.20;99.90;;;;;;12353099;28;20093;-44
2021/04/13 01:01:20;;;;;;;11.80;6.57;;;1.20;99.90;;;;;;12355145;28;20429;-42
2021/04/13 01:07:47;;;;;;;11.15;6.63;;;1.10;99.90;;;;;;12355940;28;20487;-42
2021/04/13 01:13:52;;;;;;;9.85;6.53;;;1.10;99.90;;;;;;12349174;28;20062;-42
2021/04/13 01:19:53;;;;;;;;;;;0.90;99.90;;;;;;12360481;28;20055;-43
2021/04/13 01:26:00;;;;;;;13.20;7.03;;;1.00;99.90;;;;;;12357440;28;19925;-42
2021/04/13 01:32:03;;;;;;;13.55;6.60;;;1.00;99.90;;;;;;12352763;28;20062;-43
2021/04/13 01:38:18;;;;;;;13.38;6.57;;;0.90;99.90;;;;;;12359579;28;20058;-44
2021/04/13 01:44:19;;;;;;;12.57;7.43;;;0.90;99.90;;;;;;12354684;28;20088;-44
2021/04/13 01:50:27;;;;;;;11.77;6.93;;;0.90;99.90;;;;;;12348302;28;20050;-44
2021/04/13 01:56:44;;;;;;;10.18;6.50;;;0.80;99.90;;;;;;12354142;28;20091;-44
2021/04/13 02:03:32;;;;;;;12.88;7.18;;;0.80;99.90;;;;;;12353714;28;20050;-43
2021/04/13 02:09:44;;;;;;;12.77;6.93;;;0.80;99.90;;;;;;12345087;28;20061;-43
2021/04/13 02:16:05;;;;;;;11.23;6.15;;;0.70;99.90;;;;;;12344331;28;20100;-42
2021/04/13 02:22:13;;;;;;;11.73;6.70;;;0.70;99.90;;;;;;12346085;28;20474;-42
2021/04/13 02:28:16;;;;;;;10.73;5.65;;;0.70;99.90;;;;;;12350565;28;20088;-43
2021/04/13 02:34:21;;;;;;;8.77;5.60;;;0.80;99.90;;;;;;12358045;28;20050;-43
2021/04/13 02:40:34;;;;;;;;;;;0.80;99.90;;;;;;12362266;28;20092;-46
2021/04/13 02:46:37;;;;;;;10.88;5.50;;;0.80;99.90;;;;;;12354601;28;19933;-44
2021/04/13 02:52:43;;;;;;;11.50;6.15;;;0.80;99.90;;;;;;12354426;28;20137;-43
2021/04/13 02:59:12;;;;;;;10.63;6.25;;;0.70;99.90;;;;;;12357271;28;20054;-42
2021/04/13 03:05:18;;;;;;;10.10;6.28;;;0.70;99.90;;;;;;12341013;28;20054;-42
2021/04/13 03:11:24;;;;;;;10.95;5.90;;;0.70;99.90;;;;;;12350544;28;20058;-43
2021/04/13 03:17:30;;;;;;;13.55;6.63;;;0.70;99.90;;;;;;12352210;28;20054;-42
2021/04/13 03:23:34;;;;;;;11.40;6.38;;;0.70;99.90;;;;;;12349150;28;20641;-42
2021/04/13 03:29:48;;;;;;;12.82;6.00;;;0.80;99.90;;;;;;12345524;28;20054;-42
2021/04/13 03:35:50;;;;;;;7.80;4.33;;;0.80;99.90;;;;;;12349848;28;20662;-42
2021/04/13 03:41:53;;;;;;;10.07;6.55;;;0.90;99.90;;;;;;12346124;28;20297;-42
2021/04/13 03:47:55;;;;;;;10.60;6.13;;;0.90;99.90;;;;;;12360371;28;20506;-43
2021/04/13 03:53:57;;;;;;;11.90;6.38;;;0.90;99.90;;;;;;12354294;28;20053;-42
2021/04/13 04:00:00;;;;;;;12.13;6.85;;;0.90;99.90;;;;;;12348748;28;20451;-43
2021/04/13 04:06:03;;;;;;;12.10;5.97;;;0.90;99.90;;;;;;12338510;28;20054;-42
2021/04/13 04:12:18;;;;;;;15.93;5.97;;;0.90;99.90;;;;;;12356353;28;20832;-43
2021/04/13 04:18:29;;;;;;;10.27;6.25;;;1.10;99.90;;;;;;12351743;28;20792;-42
2021/04/13 04:24:33;;;;;;;10.25;6.35;;;1.30;99.90;;;;;;12359423;28;20062;-42
2021/04/13 04:30:34;;;;;;;11.48;6.43;;;1.30;99.90;;;;;;12360580;28;20050;-43
2021/04/13 04:36:41;;;;;;;9.98;6.47;;;1.60;99.90;;;;;;12366795;28;20100;-43
2021/04/13 04:42:59;;;;;;;14.02;6.38;;;1.60;99.90;;;;;;12358722;28;20112;-42
2021/04/13 04:49:10;;;;;;;10.77;5.88;;;1.60;99.90;;;;;;12363374;28;20051;-43
2021/04/13 04:55:13;;;;;;;14.70;6.25;;;1.60;99.90;;;;;;12354456;28;20050;-42
2021/04/13 05:01:15;;;;;;;13.48;6.05;;;1.80;99.90;;;;;;12354773;28;21496;-43
2021/04/13 05:07:16;;;;;;;16.88;6.85;;;1.80;99.90;;;;;;12356210;28;20077;-43
2021/04/13 05:13:18;;;;;;;11.93;6.13;;;1.70;99.90;;;;;;12359643;28;20053;-44
2021/04/13 05:19:21;;;;;;;14.75;6.35;;;1.70;99.90;;;;;;12369321;28;20054;-42
2021/04/13 05:25:23;;;;;;;18.30;6.40;;;1.70;99.90;;;;;;12368672;28;20058;-42
2021/04/13 05:31:24;;;;;;;13.18;7.07;;;1.80;99.90;;;;;;12357779;28;20061;-43
2021/04/13 05:37:28;;;;;;;11.18;6.20;;;1.50;99.90;;;;;;12359346;28;20050;-42
2021/04/13 05:43:30;;;;;;;11.70;5.60;;;2.10;99.90;;;;;;12363378;28;20832;-43
2021/04/13 05:49:32;;;;;;;12.18;5.88;;;2.80;99.90;;;;;;12354328;28;20057;-42
2021/04/13 05:55:33;;;;;;;12.73;5.82;;;2.60;99.90;;;;;;12359165;28;20054;-42
2021/04/13 06:01:35;;;;;;;15.27;7.80;;;2.40;99.90;;;;;;12355783;28;20058;-44
2021/04/13 06:07:37;;;;;;;10.65;5.80;;;2.80;99.90;;;;;;12359008;28;20542;-43
2021/04/13 06:13:38;;;;;;;9.15;5.55;;;3.00;99.90;;;;;;12358650;28;20061;-42
2021/04/13 06:19:40;;;;;;;9.20;5.85;;;3.50;99.90;;;;;;12362830;28;20070;-43
2021/04/13 06:25:41;;;;;;;12.98;5.80;;;3.20;99.90;;;;;;12358590;28;20049;-42
2021/04/13 06:31:43;;;;;;;11.82;5.03;;;3.40;99.90;;;;;;12354302;28;20111;-43
2021/04/13 06:37:49;;;;;;;12.40;4.70;;;3.10;99.90;;;;;;12364113;28;20054;-43
2021/04/13 06:44:02;;;;;;;11.82;4.63;;;3.20;99.90;;;;;;12368827;28;20695;-43
2021/04/13 06:50:21;;;;;;;15.18;4.35;;;3.50;99.90;;;;;;12358152;28;20054;-43
2021/04/13 06:56:39;;;;;;;8.80;4.57;;;3.80;99.90;;;;;;12348504;28;20558;-43
2021/04/13 07:03:07;;;;;;;13.85;4.55;;;3.90;99.90;;;;;;12347166;28;20053;-42
2021/04/13 07:09:14;;;;;;;13.63;3.88;;;4.10;99.90;;;;;;12350809;28;20050;-43
2021/04/13 07:15:36;;;;;;;7.65;3.63;;;4.10;99.90;;;;;;12336573;28;20042;-42
2021/04/13 07:21:57;;;;;;;14.88;3.75;;;4.00;99.90;;;;;;12348754;28;20411;-44
2021/04/13 07:28:07;;;;;;;13.15;3.58;;;4.20;99.90;;;;;;12352591;28;20104;-43
2021/04/13 07:34:08;;;;;;;10.43;3.50;;;4.40;99.90;;;;;;12348913;28;20124;-42
2021/04/13 07:40:19;;;;;;;9.93;3.47;;;4.70;99.90;;;;;;12348291;28;20101;-43
2021/04/13 07:46:55;;;;;;;11.85;3.20;;;4.90;99.90;;;;;;12352430;28;20050;-43
2021/04/13 07:53:09;;;;;;;8.45;3.30;;;5.30;99.90;;;;;;12355984;28;20050;-42
2021/04/13 07:59:25;;;;;;;8.98;3.28;;;5.40;99.90;;;;;;12357112;28;20049;-42
2021/04/13 08:05:37;;;;;;;11.27;3.40;;;5.30;99.90;;;;;;12350261;28;20144;-44
2021/04/13 08:12:01;;;;;;;8.23;2.40;;;5.10;99.90;;;;;;12346209;28;20085;-43
2021/04/13 08:18:19;;;;;;;9.35;2.22;;;5.70;99.90;;;;;;12348344;28;20146;-43
2021/04/13 08:24:34;;;;;;;14.27;2.70;;;5.90;99.90;;;;;;12344509;28;20517;-43
2021/04/13 08:30:49;;;;;;;8.85;2.65;;;6.10;99.90;;;;;;12353296;28;20050;-44
2021/04/13 08:37:08;;;;;;;6.33;2.30;;;6.40;99.90;;;;;;12351350;28;20580;-44
2021/04/13 08:43:34;;;;;;;10.98;2.40;;;6.30;99.90;;;;;;12353294;28;20311;-43
2021/04/13 08:49:49;;;;;;;12.45;2.10;;;6.50;99.90;;;;;;12362971;28;20094;-43
2021/04/13 08:56:05;;;;;;;13.43;2.28;;;6.60;99.90;;;;;;12349655;28;20096;-43
2021/04/13 09:02:23;;;;;;;10.73;1.88;;;6.60;99.90;;;;;;12363143;28;20479;-43
2021/04/13 09:08:39;;;;;;;11.75;1.35;;;6.60;99.90;;;;;;12354319;28;20058;-43
2021/04/13 09:15:01;;;;;;;12.40;1.77;;;7.00;99.90;;;;;;12364424;28;20712;-43
2021/04/13 09:21:25;;;;;;;16.15;1.70;;;7.30;99.90;;;;;;12359369;28;20573;-43
2021/04/13 09:27:59;;;;;;;7.07;1.27;;;6.90;99.90;;;;;;12352605;28;20128;-43
2021/04/13 09:34:21;;;;;;;10.32;1.58;;;6.50;99.90;;;;;;12356416;28;20108;-43
2021/04/13 09:40:50;;;;;;;7.75;1.13;;;7.10;99.90;;;;;;12360096;28;20465;-43
2021/04/13 09:47:07;;;;;;;7.13;1.30;;;7.80;99.90;;;;;;12360119;28;20050;-43
2021/04/13 09:53:33;;;;;;;13.60;1.85;;;7.60;99.90;;;;;;12351417;28;20050;-43
2021/04/13 10:00:03;;;;;;;8.77;1.63;;;7.60;99.90;;;;;;12369399;28;20072;-44
2021/04/13 10:06:10;;;;;;;10.93;1.27;;;7.90;99.90;;;;;;12352939;28;20043;-45
2021/04/13 10:13:09;;;;;;;7.85;1.00;;;7.80;99.90;;;;;;12358146;28;20054;-45
2021/04/13 10:19:29;;;;;;;5.28;0.85;;;7.50;99.90;;;;;;12352063;28;20077;-43
2021/04/13 10:25:44;;;;;;;10.55;1.35;;;7.70;99.90;;;;;;12352349;28;21039;-44
2021/04/13 10:31:48;;;;;;;8.90;0.90;;;7.40;99.90;;;;;;12359822;28;20672;-43
2021/04/13 10:38:15;;;;;;;7.40;1.25;;;8.20;99.90;;;;;;12361326;28;20347;-43
2021/04/13 10:44:48;;;;;;;7.63;1.40;;;8.60;99.90;;;;;;12365283;28;20136;-43
2021/04/13 10:51:01;;;;;;;7.40;1.17;;;8.00;99.90;;;;;;12363828;28;20062;-43
2021/04/13 10:57:44;;;;;;;8.38;1.10;;;8.00;99.90;;;;;;12362740;28;20062;-43
2021/04/13 11:03:58;;;;;;;6.70;1.30;;;8.80;99.90;;;;;;12351605;28;20097;-44
2021/04/13 11:10:29;;;;;;;3.63;0.77;;;8.50;99.90;;;;;;12364649;28;20054;-43
2021/04/13 11:17:01;;;;;;;6.72;1.10;;;8.30;99.90;;;;;;12355862;28;20053;-43
2021/04/13 11:23:31;;;;;;;6.35;0.90;;;9.10;99.90;;;;;;12348480;28;20085;-43
2021/04/13 11:29:50;;;;;;;7.43;0.93;;;9.30;99.90;;;;;;12358323;28;20059;-43
2021/04/13 11:36:01;;;;;;;6.05;0.98;;;9.00;99.90;;;;;;12359766;28;20045;-43
2021/04/13 11:42:08;;;;;;;4.82;1.05;;;8.50;99.90;;;;;;12359808;28;20161;-43
2021/04/13 11:48:12;;;;;;;4.70;0.80;;;8.40;99.90;;;;;;12361317;28;20667;-43
2021/04/13 11:54:35;;;;;;;6.53;0.95;;;8.90;99.90;;;;;;12359014;28;20049;-45
2021/04/13 12:00:37;;;;;;;4.45;1.08;;;9.30;99.90;;;;;;12363889;28;20527;-43
2021/04/13 12:06:55;;;;;;;4.85;1.10;;;9.40;99.90;;;;;;12363390;28;20046;-45
2021/04/13 12:13:30;;;;;;;4.63;0.82;;;8.90;99.90;;;;;;12362851;28;20100;-44
2021/04/13 12:19:31;;;;;;;2.07;0.53;;;8.90;99.90;;;;;;12355033;28;20780;-43
2021/04/13 12:25:34;;;;;;;4.30;0.80;;;9.90;99.90;;;;;;12347028;28;20054;-44
2021/04/13 12:31:35;;;;;;;12.70;1.30;;;10.30;99.90;;;;;;12350597;28;20084;-45
2021/04/13 12:37:43;;;;;;;5.40;0.65;;;10.40;99.90;;;;;;12355870;28;20089;-44
2021/04/13 12:43:59;;;;;;;6.43;0.77;;;10.50;99.90;;;;;;12350369;28;20129;-43
2021/04/13 12:50:01;;;;;;;4.03;1.00;;;10.60;99.90;;;;;;12357268;28;20055;-43
2021/04/13 12:56:08;;;;;;;4.43;0.90;;;11.00;99.90;;;;;;12352128;28;20082;-43
2021/04/13 13:02:38;;;;;;;4.68;0.90;;;10.60;99.90;;;;;;12356258;28;20062;-44
2021/04/13 13:08:40;;;;;;;1.88;0.65;;;10.40;99.90;;;;;;12355996;28;20050;-43
2021/04/13 13:14:44;;;;;;;4.88;1.00;;;10.20;99.90;;;;;;12356958;28;20046;-43
2021/04/13 13:20:46;;;;;;;3.38;0.77;;;10.50;99.90;;;;;;12349772;28;20046;-43
2021/04/13 13:26:48;;;;;;;6.90;1.15;;;10.50;99.90;;;;;;12357386;28;20056;-44
2021/04/13 13:32:50;;;;;;;5.45;0.90;;;10.40;99.90;;;;;;12357939;28;20160;-43
2021/04/13 13:38:53;;;;;;;3.13;0.90;;;10.70;99.90;;;;;;12356056;28;20133;-43
2021/04/13 13:44:56;;;;;;;6.22;1.08;;;10.80;99.90;;;;;;12367243;28;20057;-45
2021/04/13 13:51:03;;;;;;;5.13;0.82;;;10.50;99.90;;;;;;12365792;28;20123;-43
2021/04/13 13:57:14;;;;;;;2.70;0.77;;;9.90;99.90;;;;;;12362301;28;20050;-45
2021/04/13 14:03:24;;;;;;;6.85;1.40;;;10.50;99.90;;;;;;12369954;28;20054;-44
2021/04/13 14:09:27;;;;;;;5.60;1.10;;;10.40;99.90;;;;;;12364393;28;20289;-42
2021/04/13 14:15:35;;;;;;;5.15;1.23;;;9.40;99.90;;;;;;12366312;28;20853;-43
2021/04/13 14:21:38;;;;;;;2.95;0.80;;;9.20;99.90;;;;;;12364511;28;20097;-43
2021/04/13 14:27:42;;;;;;;2.70;0.70;;;9.10;99.90;;;;;;12356482;28;20165;-43
2021/04/13 14:33:44;;;;;;;5.47;0.88;;;9.60;99.90;;;;;;12362470;28;20356;-44
2021/04/13 14:39:51;;;;;;;3.60;0.75;;;9.10;99.90;;;;;;12362259;28;20104;-43
2021/04/13 14:45:52;;;;;;;2.70;0.80;;;9.40;99.90;;;;;;12365496;28;20210;-43
2021/04/13 14:51:54;;;;;;;1.85;0.60;;;8.70;99.90;;;;;;12362097;28;20104;-43
2021/04/13 14:58:06;;;;;;;3.63;0.90;;;8.50;99.90;;;;;;12371174;28;20050;-43
2021/04/13 15:04:07;;;;;;;5.18;1.10;;;8.50;99.90;;;;;;12361821;28;20054;-43
2021/04/13 15:10:13;;;;;;;6.22;0.95;;;8.30;99.90;;;;;;12361840;28;20081;-44
2021/04/13 15:16:16;;;;;;;3.33;0.85;;;7.80;99.90;;;;;;12359740;28;20042;-43
2021/04/13 15:22:25;;;;;;;3.70;1.02;;;7.60;99.90;;;;;;12365045;28;20054;-44
2021/04/13 15:28:27;;;;;;;6.18;0.70;;;7.00;99.90;;;;;;12368445;28;20073;-43
2021/04/13 15:34:38;;;;;;;2.25;0.73;;;6.40;99.90;;;;;;12354669;28;20133;-43
2021/04/13 15:40:43;;;;;;;3.75;0.70;;;6.20;99.90;;;;;;12363597;28;20601;-43
2021/04/13 15:46:52;;;;;;;5.78;0.88;;;5.80;99.90;;;;;;12359014;28;20050;-43
2021/04/13 15:52:54;;;;;;;4.95;1.20;;;6.00;99.90;;;;;;12364799;28;20096;-45
2021/04/13 15:58:56;;;;;;;3.28;0.88;;;6.00;99.90;;;;;;12363692;28;20073;-43
2021/04/13 16:04:57;;;;;;;2.10;0.93;;;6.60;99.90;;;;;;12359255;28;20058;-42
2021/04/13 16:10:59;;;;;;;1.58;0.90;;;6.60;99.90;;;;;;12362007;28;20080;-43
2021/04/13 16:17:01;;;;;;;4.55;1.10;;;7.00;99.90;;;;;;12362491;28;20065;-44
2021/04/13 16:23:03;;;;;;;5.00;1.20;;;7.30;99.90;;;;;;12358675;28;20050;-43
2021/04/13 16:29:05;;;;;;;7.60;1.38;;;7.20;99.90;;;;;;12364287;28;20088;-44
2021/04/13 16:35:08;;;;;;;5.15;1.40;;;7.20;99.90;;;;;;12357891;28;20050;-43
2021/04/13 16:41:12;;;;;;;8.60;3.10;;;8.30;99.90;;;;;;12363548;28;20793;-44
2021/04/13 16:47:15;;;;;;;3.00;0.90;;;9.40;99.90;;;;;;12351008;28;20064;-43
2021/04/13 16:53:18;;;;;;;4.03;0.70;;;10.40;99.90;;;;;;12359835;28;20479;-45
2021/04/13 16:59:21;;;;;;;5.55;1.85;;;9.70;99.90;;;;;;12354313;28;20669;-45
2021/04/13 17:05:33;;;;;;;6.28;2.38;;;8.60;99.90;;;;;;12362164;28;20092;-44
2021/04/13 17:11:41;;;;;;;2.08;0.55;;;7.70;99.90;;;;;;12370029;28;20054;-43
2021/04/13 17:17:47;;;;;;;3.65;0.60;;;6.70;99.90;;;;;;12365616;28;20471;-42
2021/04/13 17:23:51;;;;;;;4.55;0.70;;;6.10;99.90;;;;;;12363612;28;20050;-43
2021/04/13 17:29:55;;;;;;;6.53;0.75;;;6.10;99.90;;;;;;12365122;28;20122;-43
2021/04/13 17:36:07;;;;;;;2.27;0.60;;;6.30;99.90;;;;;;12360581;28;20055;-45
2021/04/13 17:42:15;;;;;;;4.65;0.70;;;6.70;99.90;;;;;;12361842;28;20092;-43
2021/04/13 17:48:19;;;;;;;4.25;0.80;;;6.70;99.90;;;;;;12361963;28;20054;-43
2021/04/13 17:54:22;;;;;;;2.97;0.95;;;6.80;99.90;;;;;;12360509;28;20157;-45
2021/04/13 18:00:24;;;;;;;4.10;0.88;;;6.80;99.90;;;;;;12355244;28;20048;-43
2021/04/13 18:06:30;;;;;;;2.92;0.85;;;6.50;99.90;;;;;;12356233;28;20463;-43
2021/04/13 18:12:45;;;;;;;5.18;1.00;;;6.40;99.90;;;;;;12359163;28;20055;-43
2021/04/13 18:18:50;;;;;;;4.55;1.17;;;6.30;99.90;;;;;;12362767;28;20150;-43
2021/04/13 18:24:54;;;;;;;5.40;0.90;;;6.20;99.90;;;;;;12359390;28;20053;-43
2021/04/13 18:31:00;;;;;;;3.38;0.60;;;5.90;99.90;;;;;;12366621;28;20535;-43
2021/04/13 18:37:21;;;;;;;0.88;0.60;;;5.60;99.90;;;;;;12357232;28;20143;-42
2021/04/13 18:43:38;;;;;;;2.88;0.57;;;5.10;99.90;;;;;;12365224;28;20057;-42
2021/04/13 18:49:44;;;;;;;3.38;0.70;;;4.80;99.90;;;;;;12361278;28;20127;-43
2021/04/13 18:55:54;;;;;;;2.58;0.80;;;4.20;99.90;;;;;;12368072;28;20169;-43
2021/04/13 19:01:58;;;;;;;2.63;0.82;;;4.00;99.90;;;;;;12359551;28;21092;-43
2021/04/13 19:08:21;;;;;;;2.67;0.80;;;3.90;99.90;;;;;;12358042;28;20117;-44
2021/04/13 19:14:47;;;;;;;3.60;0.73;;;3.80;99.90;;;;;;12363028;28;20259;-45
2021/04/13 19:21:02;;;;;;;3.92;0.80;;;3.90;99.90;;;;;;12358283;28;20042;-43
2021/04/13 19:27:41;;;;;;;2.65;0.80;;;4.10;99.90;;;;;;12358339;28;20064;-43
2021/04/13 19:33:44;;;;;;;8.02;1.08;;;4.20;99.90;;;;;;12352195;28;20058;-43
2021/04/13 19:39:45;;;;;;;5.60;2.05;;;4.20;99.90;;;;;;12356535;28;20046;-43
2021/04/13 19:46:03;;;;;;;6.95;1.98;;;3.80;99.90;;;;;;12358903;28;20505;-44
2021/04/13 19:52:12;;;;;;;3.35;1.02;;;3.40;99.90;;;;;;12360032;28;20051;-43
2021/04/13 19:58:21;;;;;;;5.50;1.42;;;3.60;99.90;;;;;;12364818;28;20049;-43
2021/04/13 20:04:27;;;;;;;3.83;1.30;;;3.60;99.90;;;;;;12365027;28;20149;-44
2021/04/13 20:10:31;;;;;;;4.95;1.80;;;3.60;99.90;;;;;;12367838;28;20129;-42
2021/04/13 20:16:37;;;;;;;4.93;1.67;;;3.80;99.90;;;;;;12358112;28;20048;-43
2021/04/13 20:22:43;;;;;;;5.57;1.40;;;3.70;99.90;;;;;;12355630;28;20415;-43
2021/04/13 20:29:06;;;;;;;6.22;1.38;;;3.70;99.90;;;;;;12353310;28;20427;-43
2021/04/13 20:41:29;;;;;;;5.35;1.55;;;3.60;99.90;;;;;;12369233;28;20100;-43
2021/04/13 20:47:43;;;;;;;3.42;1.38;;;3.50;99.90;;;;;;12369319;28;20054;-42
2021/04/13 20:53:56;;;;;;;5.07;1.83;;;3.20;99.90;;;;;;12370100;28;20529;-43
2021/04/13 21:00:07;;;;;;;9.13;2.70;;;3.00;99.90;;;;;;12369133;28;20046;-43
2021/04/13 21:06:22;;;;;;;4.53;1.70;;;2.50;99.90;;;;;;12372985;28;20977;-43
2021/04/13 21:12:27;;;;;;;6.10;1.95;;;2.50;99.90;;;;;;12366996;28;20046;-42
2021/04/13 21:18:31;;;;;;;4.53;1.60;;;2.40;99.90;;;;;;12362956;28;20669;-43
2021/04/13 21:24:36;;;;;;;5.53;2.30;;;2.40;99.90;;;;;;12362688;28;20050;-42
2021/04/13 21:30:37;;;;;;;7.20;1.83;;;2.30;99.90;;;;;;12365900;28;20147;-42
2021/04/13 21:36:41;;;;;;;7.20;1.90;;;2.20;99.90;;;;;;12365394;28;20450;-44
2021/04/13 21:42:48;;;;;;;9.75;2.28;;;2.20;99.90;;;;;;12375947;28;20046;-42
2021/04/13 21:48:59;;;;;;;5.38;1.80;;;2.40;99.90;;;;;;12366556;28;20042;-43
2021/04/13 21:55:20;;;;;;;8.93;1.88;;;2.60;99.90;;;;;;12366707;28;20042;-43
2021/04/13 22:01:30;;;;;;;5.10;1.67;;;2.60;99.90;;;;;;12357953;28;20442;-44
2021/04/13 22:07:32;;;;;;;4.93;1.33;;;2.70;99.90;;;;;;12360644;28;20052;-43
2021/04/13 22:13:43;;;;;;;7.88;1.67;;;2.80;99.90;;;;;;12367086;28;20058;-42
2021/04/13 22:19:53;;;;;;;4.28;1.60;;;2.70;99.90;;;;;;12365829;28;20064;-42
2021/04/13 22:26:09;;;;;;;5.38;1.50;;;2.60;99.90;;;;;;12355782;28;20690;-43
2021/04/13 22:32:52;;;;;;;4.22;1.67;;;2.40;99.90;;;;;;12366399;28;20049;-43
2021/04/13 22:38:59;;;;;;;7.95;1.70;;;2.20;99.90;;;;;;12358590;28;20057;-42
2021/04/13 22:45:01;;;;;;;6.32;1.70;;;2.00;99.90;;;;;;12358074;28;20050;-43
2021/04/13 22:51:03;;;;;;;3.78;1.65;;;1.90;99.90;;;;;;12354228;28;20066;-43
2021/04/13 22:57:12;;;;;;;2.92;1.40;;;1.80;99.90;;;;;;12365581;28;20054;-42
2021/04/13 23:03:17;;;;;;;8.77;1.70;;;1.60;99.90;;;;;;12364960;28;20306;-44
2021/04/13 23:09:18;;;;;;;;;;;1.50;99.90;;;;;;12360715;28;20152;-42
2021/04/13 23:15:20;;;;;;;5.80;1.77;;;1.40;99.90;;;;;;12354939;28;19984;-42
2021/04/13 23:21:23;;;;;;;4.25;1.60;;;1.30;99.90;;;;;;12355235;28;20137;-43
2021/04/13 23:27:24;;;;;;;5.45;1.60;;;1.50;99.90;;;;;;12353982;28;20050;-44
2021/04/13 23:33:25;;;;;;;7.15;1.88;;;1.50;99.90;;;;;;12361434;28;20042;-43
2021/04/13 23:39:27;;;;;;;4.45;1.58;;;1.40;99.90;;;;;;12362605;28;20428;-42
2021/04/13 23:45:29;;;;;;;6.90;1.60;;;1.40;99.90;;;;;;12363418;28;20042;-42
2021/04/13 23:51:31;;;;;;;7.85;1.98;;;1.50;99.90;;;;;;12357653;28;21178;-43
2021/04/13 23:57:32;;;;;;;7.30;1.98;;;1.60;99.90;;;;;;12363837;28;20053;-43
